In Rescue
 
Open Full Screen Window  High Contrast Mode
July 13, 2020 10:04 PM CDT
Weather Information
Wind Direction
  ---
Wind Speed
  00 kt (0 mph)
Wind Gust
  00 kt (0 mph)
Altimeter
29.79 in
Visibility
10 SM
Temperature
18° C
64° F
Dewpoint
12° C
54° F
Humidity
68%
1hr Rain Fall
00.00 in.
24hr Rain Fall
00.00 in.
Sky Condition
Scattered @ 8,000 ft
VFR

METAR KTWM 140304Z AUTO 00000KT 10SM SCT080 18/12 A2979 RMK AO2

FAA Disclaimer: The data displayed is for advisory purposes only and is not to be used for flight planning or operations.